sensor_id;sensor_type;location;lat;lon;timestamp;P1;durP1;ratioP1;P2;durP2;ratioP2
31872;SDS011;22407;42.820;23.374;2023-08-06T00:01:10;11.23;;;4.65;;
31872;SDS011;22407;42.820;23.374;2023-08-06T00:03:35;9.67;;;4.30;;
31872;SDS011;22407;42.820;23.374;2023-08-06T00:06:01;9.90;;;4.20;;
31872;SDS011;22407;42.820;23.374;2023-08-06T00:08:26;10.20;;;4.40;;
31872;SDS011;22407;42.820;23.374;2023-08-06T00:10:52;14.43;;;4.90;;
31872;SDS011;22407;42.820;23.374;2023-08-06T00:13:17;13.50;;;5.00;;
31872;SDS011;22407;42.820;23.374;2023-08-06T00:15:42;19.20;;;5.77;;
31872;SDS011;22407;42.820;23.374;2023-08-06T00:18:08;14.97;;;5.33;;
31872;SDS011;22407;42.820;23.374;2023-08-06T00:20:33;13.70;;;5.33;;
31872;SDS011;22407;42.820;23.374;2023-08-06T00:22:58;14.70;;;5.20;;
31872;SDS011;22407;42.820;23.374;2023-08-06T00:25:24;17.90;;;5.70;;
31872;SDS011;22407;42.820;23.374;2023-08-06T00:27:49;13.07;;;5.50;;
31872;SDS011;22407;42.820;23.374;2023-08-06T00:30:14;11.47;;;5.30;;
31872;SDS011;22407;42.820;23.374;2023-08-06T00:32:39;13.47;;;5.30;;
31872;SDS011;22407;42.820;23.374;2023-08-06T00:35:05;12.03;;;5.33;;
31872;SDS011;22407;42.820;23.374;2023-08-06T00:37:30;12.10;;;5.13;;
31872;SDS011;22407;42.820;23.374;2023-08-06T00:39:55;12.73;;;5.00;;
31872;SDS011;22407;42.820;23.374;2023-08-06T00:42:21;10.87;;;4.70;;
31872;SDS011;22407;42.820;23.374;2023-08-06T00:44:47;13.40;;;4.82;;
31872;SDS011;22407;42.820;23.374;2023-08-06T00:47:12;12.00;;;5.17;;
31872;SDS011;22407;42.820;23.374;2023-08-06T00:49:38;10.60;;;4.68;;
31872;SDS011;22407;42.820;23.374;2023-08-06T00:52:04;11.40;;;4.60;;
31872;SDS011;22407;42.820;23.374;2023-08-06T00:54:30;11.30;;;4.67;;
31872;SDS011;22407;42.820;23.374;2023-08-06T00:56:55;12.40;;;4.83;;
31872;SDS011;22407;42.820;23.374;2023-08-06T00:59:22;10.60;;;4.40;;
31872;SDS011;22407;42.820;23.374;2023-08-06T01:01:47;11.87;;;4.97;;
31872;SDS011;22407;42.820;23.374;2023-08-06T01:04:15;11.77;;;5.20;;
31872;SDS011;22407;42.820;23.374;2023-08-06T01:06:52;11.67;;;5.20;;
31872;SDS011;22407;42.820;23.374;2023-08-06T01:12:25;13.00;;;5.40;;
31872;SDS011;22407;42.820;23.374;2023-08-06T01:15:11;12.68;;;5.00;;
31872;SDS011;22407;42.820;23.374;2023-08-06T01:17:39;12.90;;;5.17;;
31872;SDS011;22407;42.820;23.374;2023-08-06T01:20:05;11.95;;;5.05;;
31872;SDS011;22407;42.820;23.374;2023-08-06T01:22:31;11.10;;;5.33;;
31872;SDS011;22407;42.820;23.374;2023-08-06T01:24:56;13.17;;;5.40;;
31872;SDS011;22407;42.820;23.374;2023-08-06T01:29:49;12.32;;;5.55;;
31872;SDS011;22407;42.820;23.374;2023-08-06T01:32:15;11.00;;;4.95;;
31872;SDS011;22407;42.820;23.374;2023-08-06T01:34:41;12.80;;;5.43;;
31872;SDS011;22407;42.820;23.374;2023-08-06T01:37:08;10.85;;;5.32;;
31872;SDS011;22407;42.820;23.374;2023-08-06T01:39:34;12.63;;;5.40;;
31872;SDS011;22407;42.820;23.374;2023-08-06T01:41:59;12.00;;;5.10;;
31872;SDS011;22407;42.820;23.374;2023-08-06T01:44:24;12.40;;;5.87;;
31872;SDS011;22407;42.820;23.374;2023-08-06T01:46:50;11.63;;;5.50;;
31872;SDS011;22407;42.820;23.374;2023-08-06T01:49:15;11.03;;;4.97;;
31872;SDS011;22407;42.820;23.374;2023-08-06T01:51:40;10.57;;;5.17;;
31872;SDS011;22407;42.820;23.374;2023-08-06T01:54:06;12.35;;;5.07;;
31872;SDS011;22407;42.820;23.374;2023-08-06T01:56:31;13.83;;;5.53;;
31872;SDS011;22407;42.820;23.374;2023-08-06T01:58:56;13.73;;;6.43;;
31872;SDS011;22407;42.820;23.374;2023-08-06T02:01:22;12.48;;;6.00;;
31872;SDS011;22407;42.820;23.374;2023-08-06T02:03:47;15.37;;;6.53;;
31872;SDS011;22407;42.820;23.374;2023-08-06T02:06:12;13.70;;;6.50;;
31872;SDS011;22407;42.820;23.374;2023-08-06T02:08:37;15.97;;;6.90;;
31872;SDS011;22407;42.820;23.374;2023-08-06T02:11:04;15.02;;;6.95;;
31872;SDS011;22407;42.820;23.374;2023-08-06T02:13:29;14.97;;;6.80;;
31872;SDS011;22407;42.820;23.374;2023-08-06T02:15:54;13.73;;;6.97;;
31872;SDS011;22407;42.820;23.374;2023-08-06T02:18:20;14.27;;;7.07;;
31872;SDS011;22407;42.820;23.374;2023-08-06T02:21:07;12.03;;;6.23;;
31872;SDS011;22407;42.820;23.374;2023-08-06T02:23:31;14.75;;;7.10;;
31872;SDS011;22407;42.820;23.374;2023-08-06T02:26:03;13.57;;;6.78;;
31872;SDS011;22407;42.820;23.374;2023-08-06T02:28:28;12.77;;;6.50;;
31872;SDS011;22407;42.820;23.374;2023-08-06T02:30:54;14.07;;;6.55;;
31872;SDS011;22407;42.820;23.374;2023-08-06T02:33:19;13.27;;;7.03;;
31872;SDS011;22407;42.820;23.374;2023-08-06T02:35:44;12.03;;;6.43;;
31872;SDS011;22407;42.820;23.374;2023-08-06T02:38:10;13.13;;;6.15;;
31872;SDS011;22407;42.820;23.374;2023-08-06T02:40:35;20.97;;;7.20;;
31872;SDS011;22407;42.820;23.374;2023-08-06T02:43:01;21.13;;;8.00;;
31872;SDS011;22407;42.820;23.374;2023-08-06T02:45:27;25.50;;;8.73;;
31872;SDS011;22407;42.820;23.374;2023-08-06T02:47:52;26.70;;;8.67;;
31872;SDS011;22407;42.820;23.374;2023-08-06T02:50:17;42.63;;;10.80;;
31872;SDS011;22407;42.820;23.374;2023-08-06T02:52:43;29.80;;;11.43;;
31872;SDS011;22407;42.820;23.374;2023-08-06T02:55:08;22.80;;;9.80;;
31872;SDS011;22407;42.820;23.374;2023-08-06T02:57:33;20.40;;;9.17;;
31872;SDS011;22407;42.820;23.374;2023-08-06T02:59:59;20.50;;;9.17;;
31872;SDS011;22407;42.820;23.374;2023-08-06T03:02:24;18.67;;;8.37;;
31872;SDS011;22407;42.820;23.374;2023-08-06T03:04:50;18.57;;;8.17;;
31872;SDS011;22407;42.820;23.374;2023-08-06T03:07:16;15.88;;;7.80;;
31872;SDS011;22407;42.820;23.374;2023-08-06T03:09:41;16.40;;;7.43;;
31872;SDS011;22407;42.820;23.374;2023-08-06T03:12:06;16.57;;;7.37;;
31872;SDS011;22407;42.820;23.374;2023-08-06T03:14:32;14.53;;;6.90;;
31872;SDS011;22407;42.820;23.374;2023-08-06T03:16:57;16.67;;;7.50;;
31872;SDS011;22407;42.820;23.374;2023-08-06T03:19:22;21.33;;;9.17;;
31872;SDS011;22407;42.820;23.374;2023-08-06T03:21:47;22.50;;;9.50;;
31872;SDS011;22407;42.820;23.374;2023-08-06T03:24:13;18.97;;;8.53;;
31872;SDS011;22407;42.820;23.374;2023-08-06T03:26:38;19.77;;;8.70;;
31872;SDS011;22407;42.820;23.374;2023-08-06T03:29:04;21.52;;;9.60;;
31872;SDS011;22407;42.820;23.374;2023-08-06T03:31:29;20.93;;;9.00;;
31872;SDS011;22407;42.820;23.374;2023-08-06T03:33:54;14.07;;;7.00;;
31872;SDS011;22407;42.820;23.374;2023-08-06T03:36:19;12.27;;;6.50;;
31872;SDS011;22407;42.820;23.374;2023-08-06T03:38:45;11.45;;;5.95;;
31872;SDS011;22407;42.820;23.374;2023-08-06T03:41:10;11.70;;;5.87;;
31872;SDS011;22407;42.820;23.374;2023-08-06T03:43:35;11.60;;;6.20;;
31872;SDS011;22407;42.820;23.374;2023-08-06T03:46:01;15.20;;;7.93;;
31872;SDS011;22407;42.820;23.374;2023-08-06T03:48:26;11.53;;;6.07;;
31872;SDS011;22407;42.820;23.374;2023-08-06T03:50:51;12.87;;;6.37;;
31872;SDS011;22407;42.820;23.374;2023-08-06T03:53:16;11.17;;;5.73;;
31872;SDS011;22407;42.820;23.374;2023-08-06T03:55:42;12.53;;;5.90;;
31872;SDS011;22407;42.820;23.374;2023-08-06T03:58:07;12.53;;;6.60;;
31872;SDS011;22407;42.820;23.374;2023-08-06T04:00:32;14.13;;;7.30;;
31872;SDS011;22407;42.820;23.374;2023-08-06T04:02:57;14.10;;;7.33;;
31872;SDS011;22407;42.820;23.374;2023-08-06T04:05:23;16.13;;;7.83;;
31872;SDS011;22407;42.820;23.374;2023-08-06T04:07:48;15.10;;;7.63;;
31872;SDS011;22407;42.820;23.374;2023-08-06T04:10:13;13.13;;;6.83;;
31872;SDS011;22407;42.820;23.374;2023-08-06T04:12:39;12.37;;;6.83;;
31872;SDS011;22407;42.820;23.374;2023-08-06T04:15:05;14.20;;;7.10;;
31872;SDS011;22407;42.820;23.374;2023-08-06T04:17:30;12.80;;;7.00;;
31872;SDS011;22407;42.820;23.374;2023-08-06T04:19:55;11.10;;;6.30;;
31872;SDS011;22407;42.820;23.374;2023-08-06T04:22:23;12.77;;;6.38;;
31872;SDS011;22407;42.820;23.374;2023-08-06T04:24:48;11.87;;;6.43;;
31872;SDS011;22407;42.820;23.374;2023-08-06T04:27:14;10.67;;;6.00;;
31872;SDS011;22407;42.820;23.374;2023-08-06T04:29:39;10.98;;;5.90;;
31872;SDS011;22407;42.820;23.374;2023-08-06T04:32:06;11.03;;;5.90;;
31872;SDS011;22407;42.820;23.374;2023-08-06T04:34:31;11.15;;;6.45;;
31872;SDS011;22407;42.820;23.374;2023-08-06T04:36:57;11.90;;;7.20;;
31872;SDS011;22407;42.820;23.374;2023-08-06T04:39:22;13.20;;;7.23;;
31872;SDS011;22407;42.820;23.374;2023-08-06T04:41:47;14.55;;;8.30;;
31872;SDS011;22407;42.820;23.374;2023-08-06T04:44:13;13.40;;;7.50;;
31872;SDS011;22407;42.820;23.374;2023-08-06T04:46:38;16.03;;;7.63;;
31872;SDS011;22407;42.820;23.374;2023-08-06T04:49:03;13.40;;;7.60;;
31872;SDS011;22407;42.820;23.374;2023-08-06T04:51:28;14.43;;;7.37;;
31872;SDS011;22407;42.820;23.374;2023-08-06T04:53:54;13.10;;;7.40;;
31872;SDS011;22407;42.820;23.374;2023-08-06T04:56:19;13.13;;;7.93;;
31872;SDS011;22407;42.820;23.374;2023-08-06T04:58:44;13.73;;;8.13;;
31872;SDS011;22407;42.820;23.374;2023-08-06T05:01:10;14.07;;;8.03;;
31872;SDS011;22407;42.820;23.374;2023-08-06T05:03:35;13.97;;;8.20;;
31872;SDS011;22407;42.820;23.374;2023-08-06T05:06:00;13.07;;;7.63;;
31872;SDS011;22407;42.820;23.374;2023-08-06T05:08:25;13.27;;;7.53;;
31872;SDS011;22407;42.820;23.374;2023-08-06T05:10:51;13.00;;;7.73;;
31872;SDS011;22407;42.820;23.374;2023-08-06T05:13:16;12.07;;;7.07;;
31872;SDS011;22407;42.820;23.374;2023-08-06T05:15:41;11.97;;;6.63;;
31872;SDS011;22407;42.820;23.374;2023-08-06T05:18:07;11.98;;;6.80;;
31872;SDS011;22407;42.820;23.374;2023-08-06T05:20:35;11.50;;;6.10;;
31872;SDS011;22407;42.820;23.374;2023-08-06T05:23:00;12.80;;;7.70;;
31872;SDS011;22407;42.820;23.374;2023-08-06T05:25:26;14.07;;;7.77;;
31872;SDS011;22407;42.820;23.374;2023-08-06T05:27:51;14.60;;;7.20;;
31872;SDS011;22407;42.820;23.374;2023-08-06T05:30:18;13.85;;;7.20;;
31872;SDS011;22407;42.820;23.374;2023-08-06T05:32:43;12.63;;;7.30;;
31872;SDS011;22407;42.820;23.374;2023-08-06T05:35:08;13.60;;;7.63;;
31872;SDS011;22407;42.820;23.374;2023-08-06T05:37:34;12.53;;;6.97;;
31872;SDS011;22407;42.820;23.374;2023-08-06T05:39:59;11.60;;;6.53;;
31872;SDS011;22407;42.820;23.374;2023-08-06T05:42:24;10.53;;;5.87;;
31872;SDS011;22407;42.820;23.374;2023-08-06T05:44:49;9.47;;;4.80;;
31872;SDS011;22407;42.820;23.374;2023-08-06T05:47:15;8.70;;;4.20;;
31872;SDS011;22407;42.820;23.374;2023-08-06T05:49:40;8.20;;;3.70;;
31872;SDS011;22407;42.820;23.374;2023-08-06T05:52:05;7.50;;;3.60;;
31872;SDS011;22407;42.820;23.374;2023-08-06T05:54:33;8.30;;;4.10;;
31872;SDS011;22407;42.820;23.374;2023-08-06T05:56:58;8.67;;;4.67;;
31872;SDS011;22407;42.820;23.374;2023-08-06T05:59:23;9.47;;;4.97;;
31872;SDS011;22407;42.820;23.374;2023-08-06T06:01:49;9.10;;;5.10;;
31872;SDS011;22407;42.820;23.374;2023-08-06T06:04:14;9.13;;;4.73;;
31872;SDS011;22407;42.820;23.374;2023-08-06T06:06:39;8.83;;;4.93;;
31872;SDS011;22407;42.820;23.374;2023-08-06T06:09:06;8.80;;;5.00;;
31872;SDS011;22407;42.820;23.374;2023-08-06T06:11:32;9.35;;;4.65;;
31872;SDS011;22407;42.820;23.374;2023-08-06T06:13:57;8.77;;;4.57;;
31872;SDS011;22407;42.820;23.374;2023-08-06T06:16:22;8.03;;;4.40;;
31872;SDS011;22407;42.820;23.374;2023-08-06T06:18:48;8.17;;;4.30;;
31872;SDS011;22407;42.820;23.374;2023-08-06T06:21:13;8.43;;;3.80;;
31872;SDS011;22407;42.820;23.374;2023-08-06T06:23:38;8.20;;;4.27;;
31872;SDS011;22407;42.820;23.374;2023-08-06T06:26:04;8.27;;;3.60;;
31872;SDS011;22407;42.820;23.374;2023-08-06T06:28:29;8.60;;;3.60;;
31872;SDS011;22407;42.820;23.374;2023-08-06T06:30:59;8.50;;;3.55;;
31872;SDS011;22407;42.820;23.374;2023-08-06T06:33:24;7.15;;;3.70;;
31872;SDS011;22407;42.820;23.374;2023-08-06T06:35:50;7.23;;;3.33;;
31872;SDS011;22407;42.820;23.374;2023-08-06T06:38:15;6.40;;;3.00;;
31872;SDS011;22407;42.820;23.374;2023-08-06T06:40:40;6.43;;;2.70;;
31872;SDS011;22407;42.820;23.374;2023-08-06T06:43:06;9.07;;;3.47;;
31872;SDS011;22407;42.820;23.374;2023-08-06T06:45:31;6.40;;;2.43;;
31872;SDS011;22407;42.820;23.374;2023-08-06T06:47:56;6.00;;;2.50;;
31872;SDS011;22407;42.820;23.374;2023-08-06T06:50:21;7.37;;;2.40;;
31872;SDS011;22407;42.820;23.374;2023-08-06T06:52:47;8.00;;;2.50;;
31872;SDS011;22407;42.820;23.374;2023-08-06T06:55:12;6.07;;;2.47;;
31872;SDS011;22407;42.820;23.374;2023-08-06T06:57:37;7.00;;;2.60;;
31872;SDS011;22407;42.820;23.374;2023-08-06T07:00:03;7.33;;;3.00;;
31872;SDS011;22407;42.820;23.374;2023-08-06T07:02:28;10.77;;;4.20;;
31872;SDS011;22407;42.820;23.374;2023-08-06T07:04:53;8.63;;;3.10;;
31872;SDS011;22407;42.820;23.374;2023-08-06T07:07:18;7.57;;;2.90;;
31872;SDS011;22407;42.820;23.374;2023-08-06T07:09:44;5.80;;;2.70;;
31872;SDS011;22407;42.820;23.374;2023-08-06T07:12:09;7.40;;;2.70;;
31872;SDS011;22407;42.820;23.374;2023-08-06T07:14:35;11.13;;;3.20;;
31872;SDS011;22407;42.820;23.374;2023-08-06T07:17:00;6.30;;;2.40;;
31872;SDS011;22407;42.820;23.374;2023-08-06T07:19:25;8.35;;;3.05;;
31872;SDS011;22407;42.820;23.374;2023-08-06T07:21:50;7.23;;;2.77;;
31872;SDS011;22407;42.820;23.374;2023-08-06T07:24:16;6.27;;;2.70;;
31872;SDS011;22407;42.820;23.374;2023-08-06T07:26:41;7.50;;;2.70;;
31872;SDS011;22407;42.820;23.374;2023-08-06T07:29:06;5.93;;;2.50;;
31872;SDS011;22407;42.820;23.374;2023-08-06T07:31:31;6.00;;;2.60;;
31872;SDS011;22407;42.820;23.374;2023-08-06T07:33:57;8.27;;;2.57;;
31872;SDS011;22407;42.820;23.374;2023-08-06T07:36:22;6.90;;;2.27;;
31872;SDS011;22407;42.820;23.374;2023-08-06T07:38:47;9.83;;;2.90;;
31872;SDS011;22407;42.820;23.374;2023-08-06T07:41:16;6.43;;;2.70;;
31872;SDS011;22407;42.820;23.374;2023-08-06T07:43:41;6.27;;;2.60;;
31872;SDS011;22407;42.820;23.374;2023-08-06T07:46:07;5.93;;;2.47;;
31872;SDS011;22407;42.820;23.374;2023-08-06T07:48:33;6.25;;;2.28;;
31872;SDS011;22407;42.820;23.374;2023-08-06T07:50:58;6.73;;;2.50;;
31872;SDS011;22407;42.820;23.374;2023-08-06T07:53:24;6.18;;;2.63;;
31872;SDS011;22407;42.820;23.374;2023-08-06T07:55:52;9.90;;;3.03;;
31872;SDS011;22407;42.820;23.374;2023-08-06T07:58:18;6.80;;;2.50;;
31872;SDS011;22407;42.820;23.374;2023-08-06T08:00:44;6.15;;;2.80;;
31872;SDS011;22407;42.820;23.374;2023-08-06T08:03:11;6.60;;;2.80;;
31872;SDS011;22407;42.820;23.374;2023-08-06T08:05:37;8.80;;;2.83;;
31872;SDS011;22407;42.820;23.374;2023-08-06T08:08:02;7.63;;;2.80;;
31872;SDS011;22407;42.820;23.374;2023-08-06T08:10:27;7.43;;;2.77;;
31872;SDS011;22407;42.820;23.374;2023-08-06T08:12:53;5.97;;;2.70;;
31872;SDS011;22407;42.820;23.374;2023-08-06T08:15:18;6.77;;;3.00;;
31872;SDS011;22407;42.820;23.374;2023-08-06T08:17:43;9.07;;;3.40;;
31872;SDS011;22407;42.820;23.374;2023-08-06T08:20:09;8.87;;;3.17;;
31872;SDS011;22407;42.820;23.374;2023-08-06T08:22:34;6.70;;;3.10;;
31872;SDS011;22407;42.820;23.374;2023-08-06T08:25:00;6.30;;;2.80;;
31872;SDS011;22407;42.820;23.374;2023-08-06T08:27:25;6.67;;;2.70;;
31872;SDS011;22407;42.820;23.374;2023-08-06T08:29:51;7.57;;;2.90;;
31872;SDS011;22407;42.820;23.374;2023-08-06T08:32:16;6.30;;;2.70;;
31872;SDS011;22407;42.820;23.374;2023-08-06T08:34:41;6.63;;;2.70;;
31872;SDS011;22407;42.820;23.374;2023-08-06T08:37:07;7.07;;;2.97;;
31872;SDS011;22407;42.820;23.374;2023-08-06T08:39:32;7.10;;;3.20;;
31872;SDS011;22407;42.820;23.374;2023-08-06T08:41:57;7.37;;;3.13;;
31872;SDS011;22407;42.820;23.374;2023-08-06T08:44:23;7.00;;;3.27;;
31872;SDS011;22407;42.820;23.374;2023-08-06T08:46:53;6.90;;;3.08;;
31872;SDS011;22407;42.820;23.374;2023-08-06T08:49:19;6.97;;;3.08;;
31872;SDS011;22407;42.820;23.374;2023-08-06T08:51:46;7.43;;;3.22;;
31872;SDS011;22407;42.820;23.374;2023-08-06T08:54:12;5.85;;;2.90;;
31872;SDS011;22407;42.820;23.374;2023-08-06T08:56:38;7.70;;;3.20;;
31872;SDS011;22407;42.820;23.374;2023-08-06T08:59:03;7.37;;;3.30;;
31872;SDS011;22407;42.820;23.374;2023-08-06T09:01:29;7.22;;;3.30;;
31872;SDS011;22407;42.820;23.374;2023-08-06T09:03:54;6.97;;;3.17;;
31872;SDS011;22407;42.820;23.374;2023-08-06T09:06:20;8.15;;;3.15;;
31872;SDS011;22407;42.820;23.374;2023-08-06T09:08:48;8.00;;;3.30;;
31872;SDS011;22407;42.820;23.374;2023-08-06T09:11:15;7.55;;;3.40;;
31872;SDS011;22407;42.820;23.374;2023-08-06T09:13:41;8.68;;;3.40;;
31872;SDS011;22407;42.820;23.374;2023-08-06T09:16:06;6.50;;;3.00;;
31872;SDS011;22407;42.820;23.374;2023-08-06T09:18:31;9.10;;;3.20;;
31872;SDS011;22407;42.820;23.374;2023-08-06T09:20:57;6.60;;;2.70;;
31872;SDS011;22407;42.820;23.374;2023-08-06T09:23:29;6.57;;;2.90;;
31872;SDS011;22407;42.820;23.374;2023-08-06T09:25:55;7.25;;;3.00;;
31872;SDS011;22407;42.820;23.374;2023-08-06T09:28:21;7.97;;;3.10;;
31872;SDS011;22407;42.820;23.374;2023-08-06T09:30:47;7.83;;;3.20;;
31872;SDS011;22407;42.820;23.374;2023-08-06T09:33:14;6.38;;;2.80;;
31872;SDS011;22407;42.820;23.374;2023-08-06T09:35:42;7.70;;;3.13;;
31872;SDS011;22407;42.820;23.374;2023-08-06T09:38:08;7.40;;;3.00;;
31872;SDS011;22407;42.820;23.374;2023-08-06T09:40:34;6.60;;;2.90;;
31872;SDS011;22407;42.820;23.374;2023-08-06T09:42:59;8.63;;;3.30;;
31872;SDS011;22407;42.820;23.374;2023-08-06T09:45:28;7.33;;;3.00;;
31872;SDS011;22407;42.820;23.374;2023-08-06T09:47:56;7.17;;;3.00;;
31872;SDS011;22407;42.820;23.374;2023-08-06T09:50:22;6.63;;;2.97;;
31872;SDS011;22407;42.820;23.374;2023-08-06T09:52:48;6.85;;;2.80;;
31872;SDS011;22407;42.820;23.374;2023-08-06T09:55:14;8.55;;;2.83;;
31872;SDS011;22407;42.820;23.374;2023-08-06T09:57:42;7.27;;;3.10;;
31872;SDS011;22407;42.820;23.374;2023-08-06T10:00:08;6.97;;;2.78;;
31872;SDS011;22407;42.820;23.374;2023-08-06T10:02:35;8.95;;;2.95;;
31872;SDS011;22407;42.820;23.374;2023-08-06T10:05:00;6.85;;;2.60;;
31872;SDS011;22407;42.820;23.374;2023-08-06T10:07:26;5.95;;;2.67;;
31872;SDS011;22407;42.820;23.374;2023-08-06T10:09:52;6.30;;;2.80;;
31872;SDS011;22407;42.820;23.374;2023-08-06T10:12:17;5.97;;;2.60;;
31872;SDS011;22407;42.820;23.374;2023-08-06T10:14:44;6.85;;;2.80;;
31872;SDS011;22407;42.820;23.374;2023-08-06T10:17:10;7.00;;;2.63;;
31872;SDS011;22407;42.820;23.374;2023-08-06T10:19:36;7.03;;;2.80;;
31872;SDS011;22407;42.820;23.374;2023-08-06T10:22:08;8.00;;;2.50;;
31872;SDS011;22407;42.820;23.374;2023-08-06T10:27:21;6.70;;;2.70;;
31872;SDS011;22407;42.820;23.374;2023-08-06T10:29:47;6.68;;;2.50;;
31872;SDS011;22407;42.820;23.374;2023-08-06T10:32:12;6.37;;;2.73;;
31872;SDS011;22407;42.820;23.374;2023-08-06T10:34:53;7.60;;;2.90;;
31872;SDS011;22407;42.820;23.374;2023-08-06T10:37:18;6.53;;;2.90;;
31872;SDS011;22407;42.820;23.374;2023-08-06T10:39:53;6.53;;;3.03;;
31872;SDS011;22407;42.820;23.374;2023-08-06T10:42:22;6.35;;;2.83;;
31872;SDS011;22407;42.820;23.374;2023-08-06T10:47:35;7.63;;;3.20;;
31872;SDS011;22407;42.820;23.374;2023-08-06T10:50:05;8.52;;;3.20;;
31872;SDS011;22407;42.820;23.374;2023-08-06T10:52:31;6.15;;;2.95;;
31872;SDS011;22407;42.820;23.374;2023-08-06T10:54:56;5.97;;;2.87;;
31872;SDS011;22407;42.820;23.374;2023-08-06T10:57:31;7.10;;;2.87;;
31872;SDS011;22407;42.820;23.374;2023-08-06T10:59:56;7.28;;;3.38;;
31872;SDS011;22407;42.820;23.374;2023-08-06T11:02:21;6.60;;;3.00;;
31872;SDS011;22407;42.820;23.374;2023-08-06T11:04:47;7.60;;;2.97;;
31872;SDS011;22407;42.820;23.374;2023-08-06T11:07:13;6.53;;;3.15;;
31872;SDS011;22407;42.820;23.374;2023-08-06T11:09:38;7.17;;;3.00;;
31872;SDS011;22407;42.820;23.374;2023-08-06T11:12:08;7.13;;;3.20;;
31872;SDS011;22407;42.820;23.374;2023-08-06T11:14:34;7.57;;;3.20;;
31872;SDS011;22407;42.820;23.374;2023-08-06T11:16:59;8.17;;;3.50;;
31872;SDS011;22407;42.820;23.374;2023-08-06T11:19:24;8.17;;;3.80;;
31872;SDS011;22407;42.820;23.374;2023-08-06T11:21:51;6.70;;;3.30;;
31872;SDS011;22407;42.820;23.374;2023-08-06T11:24:16;8.57;;;3.30;;
31872;SDS011;22407;42.820;23.374;2023-08-06T11:26:42;7.90;;;3.00;;
31872;SDS011;22407;42.820;23.374;2023-08-06T11:29:09;7.28;;;3.30;;
31872;SDS011;22407;42.820;23.374;2023-08-06T11:31:35;8.20;;;3.67;;
31872;SDS011;22407;42.820;23.374;2023-08-06T11:34:01;7.70;;;4.00;;
31872;SDS011;22407;42.820;23.374;2023-08-06T11:36:33;8.17;;;3.97;;
31872;SDS011;22407;42.820;23.374;2023-08-06T11:38:59;8.73;;;4.40;;
31872;SDS011;22407;42.820;23.374;2023-08-06T11:41:24;7.40;;;4.10;;
31872;SDS011;22407;42.820;23.374;2023-08-06T11:43:50;7.60;;;4.20;;
31872;SDS011;22407;42.820;23.374;2023-08-06T11:46:15;8.13;;;4.30;;
31872;SDS011;22407;42.820;23.374;2023-08-06T11:48:56;8.13;;;4.30;;
31872;SDS011;22407;42.820;23.374;2023-08-06T11:51:24;7.45;;;3.90;;
31872;SDS011;22407;42.820;23.374;2023-08-06T11:53:56;8.00;;;4.30;;
31872;SDS011;22407;42.820;23.374;2023-08-06T11:56:21;8.90;;;4.38;;
31872;SDS011;22407;42.820;23.374;2023-08-06T11:58:47;7.30;;;4.22;;
31872;SDS011;22407;42.820;23.374;2023-08-06T12:01:13;7.50;;;3.50;;
31872;SDS011;22407;42.820;23.374;2023-08-06T12:03:39;6.97;;;3.30;;
31872;SDS011;22407;42.820;23.374;2023-08-06T12:06:04;7.65;;;3.60;;
31872;SDS011;22407;42.820;23.374;2023-08-06T12:08:29;7.33;;;3.93;;
31872;SDS011;22407;42.820;23.374;2023-08-06T12:10:54;7.80;;;4.23;;
31872;SDS011;22407;42.820;23.374;2023-08-06T12:13:20;8.50;;;4.00;;
31872;SDS011;22407;42.820;23.374;2023-08-06T12:15:45;9.07;;;4.27;;
31872;SDS011;22407;42.820;23.374;2023-08-06T12:18:10;7.63;;;4.33;;
31872;SDS011;22407;42.820;23.374;2023-08-06T12:20:36;8.73;;;4.30;;
31872;SDS011;22407;42.820;23.374;2023-08-06T12:23:01;8.43;;;4.60;;
31872;SDS011;22407;42.820;23.374;2023-08-06T12:25:26;7.15;;;4.00;;
31872;SDS011;22407;42.820;23.374;2023-08-06T12:27:52;7.27;;;4.17;;
31872;SDS011;22407;42.820;23.374;2023-08-06T12:30:17;7.03;;;3.90;;
31872;SDS011;22407;42.820;23.374;2023-08-06T12:32:42;7.20;;;4.03;;
31872;SDS011;22407;42.820;23.374;2023-08-06T12:35:07;7.85;;;4.15;;
31872;SDS011;22407;42.820;23.374;2023-08-06T12:37:33;6.30;;;3.40;;
31872;SDS011;22407;42.820;23.374;2023-08-06T12:39:58;7.17;;;3.23;;
31872;SDS011;22407;42.820;23.374;2023-08-06T12:42:23;7.03;;;3.30;;
31872;SDS011;22407;42.820;23.374;2023-08-06T12:44:49;6.43;;;2.97;;
31872;SDS011;22407;42.820;23.374;2023-08-06T12:47:15;7.27;;;3.10;;
31872;SDS011;22407;42.820;23.374;2023-08-06T12:49:40;6.90;;;3.00;;
31872;SDS011;22407;42.820;23.374;2023-08-06T12:52:06;6.10;;;2.77;;
31872;SDS011;22407;42.820;23.374;2023-08-06T12:54:32;7.30;;;2.60;;
31872;SDS011;22407;42.820;23.374;2023-08-06T12:57:04;6.00;;;3.00;;
31872;SDS011;22407;42.820;23.374;2023-08-06T12:59:30;6.53;;;3.10;;
31872;SDS011;22407;42.820;23.374;2023-08-06T13:01:55;7.25;;;3.10;;
31872;SDS011;22407;42.820;23.374;2023-08-06T13:04:20;7.57;;;3.50;;
31872;SDS011;22407;42.820;23.374;2023-08-06T13:06:45;7.07;;;3.40;;
31872;SDS011;22407;42.820;23.374;2023-08-06T13:09:11;6.00;;;3.23;;
31872;SDS011;22407;42.820;23.374;2023-08-06T13:11:38;7.82;;;3.42;;
31872;SDS011;22407;42.820;23.374;2023-08-06T13:14:05;6.63;;;3.30;;
31872;SDS011;22407;42.820;23.374;2023-08-06T13:16:30;6.95;;;3.22;;
31872;SDS011;22407;42.820;23.374;2023-08-06T13:18:55;7.83;;;3.33;;
31872;SDS011;22407;42.820;23.374;2023-08-06T13:21:21;7.57;;;3.70;;
31872;SDS011;22407;42.820;23.374;2023-08-06T13:23:46;7.03;;;3.70;;
31872;SDS011;22407;42.820;23.374;2023-08-06T13:26:12;7.05;;;3.50;;
31872;SDS011;22407;42.820;23.374;2023-08-06T13:28:38;7.27;;;3.80;;
31872;SDS011;22407;42.820;23.374;2023-08-06T13:31:03;7.43;;;3.73;;
31872;SDS011;22407;42.820;23.374;2023-08-06T13:33:28;6.83;;;3.80;;
31872;SDS011;22407;42.820;23.374;2023-08-06T13:35:54;7.05;;;3.72;;
31872;SDS011;22407;42.820;23.374;2023-08-06T13:38:19;6.67;;;3.57;;
31872;SDS011;22407;42.820;23.374;2023-08-06T13:40:44;7.23;;;3.80;;
31872;SDS011;22407;42.820;23.374;2023-08-06T13:43:11;7.75;;;3.60;;
31872;SDS011;22407;42.820;23.374;2023-08-06T13:45:36;7.33;;;3.90;;
31872;SDS011;22407;42.820;23.374;2023-08-06T13:48:03;7.37;;;3.80;;
31872;SDS011;22407;42.820;23.374;2023-08-06T13:50:28;7.90;;;3.67;;
31872;SDS011;22407;42.820;23.374;2023-08-06T13:52:54;8.07;;;3.88;;
31872;SDS011;22407;42.820;23.374;2023-08-06T13:55:20;7.53;;;3.50;;
31872;SDS011;22407;42.820;23.374;2023-08-06T13:57:46;8.03;;;3.83;;
31872;SDS011;22407;42.820;23.374;2023-08-06T14:00:11;6.97;;;3.80;;
31872;SDS011;22407;42.820;23.374;2023-08-06T14:02:37;7.00;;;3.80;;
31872;SDS011;22407;42.820;23.374;2023-08-06T14:05:02;7.57;;;3.90;;
31872;SDS011;22407;42.820;23.374;2023-08-06T14:07:27;7.70;;;3.70;;
31872;SDS011;22407;42.820;23.374;2023-08-06T14:09:53;6.57;;;3.53;;
31872;SDS011;22407;42.820;23.374;2023-08-06T14:12:18;8.50;;;3.42;;
31872;SDS011;22407;42.820;23.374;2023-08-06T14:14:43;7.83;;;3.60;;
31872;SDS011;22407;42.820;23.374;2023-08-06T14:17:09;7.30;;;3.80;;
31872;SDS011;22407;42.820;23.374;2023-08-06T14:19:34;7.20;;;3.80;;
31872;SDS011;22407;42.820;23.374;2023-08-06T14:21:59;7.13;;;3.70;;
31872;SDS011;22407;42.820;23.374;2023-08-06T14:24:24;7.10;;;3.40;;
31872;SDS011;22407;42.820;23.374;2023-08-06T14:26:50;7.30;;;3.87;;
31872;SDS011;22407;42.820;23.374;2023-08-06T14:29:16;8.27;;;3.87;;
31872;SDS011;22407;42.820;23.374;2023-08-06T14:31:41;6.85;;;3.30;;